createdAt,value
2018-08-09T00:01:24.164Z,71.46
2018-08-09T00:03:54.774Z,71.40
2018-08-09T00:06:25.155Z,71.86
2018-08-09T00:08:55.277Z,71.41
2018-08-09T00:13:09.525Z,71.95
2018-08-09T00:15:39.678Z,72.02
2018-08-09T00:18:10.142Z,72.74
2018-08-09T00:20:40.467Z,72.80
2018-08-09T00:23:12.942Z,72.99
2018-08-09T00:26:24.449Z,72.48
2018-08-09T00:28:55.174Z,71.98
2018-08-09T00:31:34.381Z,72.30
2018-08-09T00:34:21.479Z,72.39
2018-08-09T00:37:03.909Z,71.97
2018-08-09T00:42:38.278Z,72.11
2018-08-09T00:45:09.494Z,72.18
2018-08-09T00:47:40.993Z,72.78
2018-08-09T00:50:11.656Z,73.00
2018-08-09T00:52:41.804Z,73.36
2018-08-09T00:55:12.463Z,73.33
2018-08-09T00:57:43.171Z,72.81
2018-08-09T01:00:32.667Z,72.43
2018-08-09T01:03:03.071Z,72.04
2018-08-09T01:05:33.463Z,72.45
2018-08-09T01:08:03.846Z,72.72
2018-08-09T01:10:36.300Z,73.68
2018-08-09T01:13:06.830Z,73.51
2018-08-09T01:15:40.543Z,73.57
2018-08-09T01:18:11.543Z,73.96
2018-08-09T01:20:42.013Z,74.28
2018-08-09T01:23:13.651Z,73.72
2018-08-09T01:25:48.126Z,74.18
2018-08-09T01:28:18.440Z,74.21
2018-08-09T01:30:54.080Z,74.64
2018-08-09T01:33:24.779Z,74.63
2018-08-09T01:35:55.737Z,74.84
2018-08-09T01:38:31.073Z,74.96
2018-08-09T01:41:02.009Z,75.04
2018-08-09T01:43:42.988Z,74.60
2018-08-09T01:46:13.494Z,74.73
2018-08-09T01:48:47.006Z,74.33
2018-08-09T01:51:18.008Z,74.12
2018-08-09T01:53:49.032Z,74.75
2018-08-09T01:56:20.321Z,74.64
2018-08-09T01:58:51.752Z,74.66
2018-08-09T02:01:22.412Z,74.48
2018-08-09T02:04:36.884Z,74.66
2018-08-09T02:07:06.961Z,75.02
2018-08-09T02:09:38.168Z,74.93
2018-08-09T02:12:09.631Z,75.00
2018-08-09T02:14:40.005Z,74.73
2018-08-09T02:17:09.994Z,74.93
2018-08-09T02:19:40.753Z,74.75
2018-08-09T02:22:10.971Z,75.26
2018-08-09T02:24:41.331Z,75.65
2018-08-09T02:27:12.828Z,75.44
2018-08-09T02:30:12.206Z,76.07
2018-08-09T02:32:46.559Z,75.74
2018-08-09T02:35:16.992Z,76.40
2018-08-09T02:38:40.180Z,76.60
2018-08-09T02:41:10.779Z,77.09
2018-08-09T02:46:44.802Z,77.46
2018-08-09T02:49:15.359Z,78.06
2018-08-09T02:51:45.776Z,78.80
2018-08-09T02:54:15.857Z,78.76
2018-08-09T02:57:06.473Z,78.82
2018-08-09T03:02:42.224Z,80.07
2018-08-09T03:05:18.964Z,79.92
2018-08-09T03:07:48.925Z,80.91
2018-08-09T03:10:19.262Z,80.83
2018-08-09T03:12:49.612Z,81.17
2018-08-09T03:15:36.124Z,81.36
2018-08-09T03:18:10.641Z,81.51
2018-08-09T03:20:42.325Z,81.42
2018-08-09T03:23:13.032Z,82.11
2018-08-09T03:26:01.379Z,82.46
2018-08-09T03:29:07.640Z,82.49
2018-08-09T03:31:37.870Z,83.03
2018-08-09T03:36:55.229Z,82.62
2018-08-09T03:39:25.611Z,82.51
2018-08-09T03:41:57.371Z,83.15
2018-08-09T03:44:27.387Z,82.92
2018-08-09T03:46:57.845Z,82.79
2018-08-09T03:49:55.938Z,83.64
2018-08-09T03:52:26.218Z,83.81
2018-08-09T03:54:57.695Z,84.17
2018-08-09T03:57:27.942Z,84.36
2018-08-09T03:59:58.066Z,84.59
2018-08-09T04:02:28.488Z,84.31
2018-08-09T04:04:58.498Z,84.33
2018-08-09T04:07:28.546Z,84.51
2018-08-09T04:10:01.120Z,84.60
2018-08-09T04:12:31.032Z,84.06
2018-08-09T04:15:01.946Z,84.21
2018-08-09T04:17:31.829Z,83.97
2018-08-09T04:20:03.015Z,83.92
2018-08-09T04:22:33.710Z,84.54
2018-08-09T04:25:04.241Z,83.93
2018-08-09T04:27:35.567Z,84.00
2018-08-09T04:30:10.506Z,83.56
2018-08-09T04:32:41.098Z,83.03
2018-08-09T04:35:11.596Z,83.14
2018-08-09T04:37:42.017Z,83.23
2018-08-09T04:40:12.536Z,83.16
2018-08-09T04:42:43.165Z,83.46
2018-08-09T04:45:13.542Z,83.57
2018-08-09T04:47:44.070Z,83.15
2018-08-09T04:53:12.404Z,82.57
2018-08-09T04:55:42.922Z,82.28
2018-08-09T05:02:17.346Z,82.88
2018-08-09T05:04:47.715Z,82.19
2018-08-09T05:07:25.519Z,82.22
2018-08-09T05:10:07.217Z,82.25
2018-08-09T05:12:40.604Z,82.17
2018-08-09T05:15:13.746Z,82.07
2018-08-09T05:17:49.348Z,81.44
2018-08-09T05:20:20.756Z,81.25
2018-08-09T05:22:53.291Z,81.09
2018-08-09T05:25:24.767Z,80.85
2018-08-09T05:27:54.999Z,80.73
2018-08-09T05:30:24.965Z,80.52
2018-08-09T05:32:55.596Z,79.66
2018-08-09T05:35:26.192Z,79.53
2018-08-09T05:37:56.241Z,78.97
2018-08-09T05:40:31.112Z,78.79
2018-08-09T05:43:01.509Z,77.91
2018-08-09T05:45:31.381Z,77.79
2018-08-09T05:48:02.252Z,77.96
2018-08-09T05:50:32.340Z,77.57
2018-08-09T05:53:02.733Z,77.01
2018-08-09T05:55:50.906Z,76.69
2018-08-09T05:58:21.509Z,76.25
2018-08-09T06:04:14.157Z,75.76
2018-08-09T06:06:45.767Z,76.16
2018-08-09T06:09:16.119Z,76.55
2018-08-09T06:11:45.983Z,76.02
2018-08-09T06:14:15.900Z,75.99
2018-08-09T06:16:45.860Z,76.34
2018-08-09T06:19:16.349Z,76.00
2018-08-09T06:21:46.334Z,75.51
2018-08-09T06:24:16.288Z,74.82
2018-08-09T06:26:46.267Z,74.65
2018-08-09T06:29:16.501Z,74.02
2018-08-09T06:31:46.542Z,74.14
2018-08-09T06:34:19.448Z,73.25
2018-08-09T06:36:49.471Z,72.17
2018-08-09T06:39:19.750Z,71.60
2018-08-09T06:41:50.120Z,70.40
2018-08-09T06:44:21.682Z,69.13
2018-08-09T06:46:51.672Z,68.13
2018-08-09T06:49:21.634Z,68.13
2018-08-09T06:51:52.336Z,66.02
2018-08-09T06:54:22.168Z,65.16
2018-08-09T06:56:52.452Z,64.45
2018-08-09T06:59:22.516Z,64.22
2018-08-09T07:01:52.736Z,63.45
2018-08-09T07:04:22.612Z,63.35
2018-08-09T07:06:52.905Z,62.14
2018-08-09T07:09:27.148Z,62.02
2018-08-09T07:11:57.140Z,59.05
2018-08-09T07:17:02.177Z,57.76
2018-08-09T07:19:32.764Z,57.33
2018-08-09T07:22:03.580Z,56.97
2018-08-09T07:24:33.411Z,57.04
2018-08-09T07:27:03.269Z,56.24
2018-08-09T07:29:33.212Z,56.88
2018-08-09T07:32:03.438Z,54.96
2018-08-09T07:34:33.685Z,54.74
2018-08-09T07:37:08.234Z,54.37
2018-08-09T07:39:38.974Z,54.74
2018-08-09T07:42:09.186Z,54.35
2018-08-09T07:44:39.625Z,54.10
2018-08-09T07:47:09.830Z,53.15
2018-08-09T07:49:39.571Z,53.54
2018-08-09T07:52:09.764Z,53.58
2018-08-09T07:54:40.050Z,53.88
2018-08-09T07:57:10.380Z,54.09
2018-08-09T07:59:40.186Z,52.45
2018-08-09T08:02:11.060Z,52.74
2018-08-09T08:07:21.263Z,51.36
2018-08-09T08:09:53.914Z,51.26
2018-08-09T08:12:24.331Z,51.64
2018-08-09T08:14:58.586Z,51.97
2018-08-09T08:17:31.573Z,49.60
2018-08-09T08:20:02.786Z,48.59
2018-08-09T08:22:33.478Z,47.83
2018-08-09T08:25:03.911Z,45.76
2018-08-09T08:27:33.924Z,42.50
2018-08-09T08:30:03.844Z,40.53
2018-08-09T08:32:34.467Z,40.96
2018-08-09T08:35:04.843Z,40.29
2018-08-09T08:37:35.043Z,38.66
2018-08-09T08:40:08.634Z,39.27
2018-08-09T08:42:39.225Z,38.88
2018-08-09T08:45:13.103Z,38.01
2018-08-09T08:47:44.526Z,36.94
2018-08-09T08:52:52.781Z,34.41
2018-08-09T08:55:23.008Z,33.91
2018-08-09T08:57:53.487Z,31.96
2018-08-09T09:14:25.181Z,30.86
2018-08-09T09:16:55.420Z,30.10
2018-08-09T09:22:50.831Z,29.26
2018-08-09T09:25:22.079Z,28.21
2018-08-09T09:27:53.631Z,28.72
2018-08-09T09:30:23.688Z,27.30
2018-08-09T09:32:57.806Z,26.98
2018-08-09T09:35:36.221Z,26.70
2018-08-09T09:40:53.036Z,28.16
2018-08-09T09:43:23.552Z,27.23
2018-08-09T09:46:03.477Z,29.48
2018-08-09T09:48:40.678Z,27.99
2018-08-09T09:51:12.870Z,25.83
2018-08-09T09:53:46.500Z,26.22
2018-08-09T09:56:24.220Z,26.30
2018-08-09T10:04:30.055Z,26.86
2018-08-09T10:07:01.745Z,26.70
2018-08-09T10:09:39.494Z,26.05
2018-08-09T10:12:10.543Z,26.16
2018-08-09T10:14:42.390Z,26.77
2018-08-09T10:17:13.486Z,25.99
2018-08-09T10:19:45.083Z,26.91
2018-08-09T10:22:16.754Z,26.96
2018-08-09T10:24:49.352Z,27.09
2018-08-09T10:27:20.075Z,28.07
2018-08-09T10:29:51.617Z,28.82
2018-08-09T10:32:23.186Z,29.37
2018-08-09T10:34:54.530Z,29.99
2018-08-09T10:37:26.938Z,30.74
2018-08-09T10:40:00.152Z,31.40
2018-08-09T10:42:30.961Z,31.16
2018-08-09T10:45:02.889Z,31.86
2018-08-09T10:47:34.784Z,32.04
2018-08-09T10:50:05.742Z,32.63
2018-08-09T10:52:38.682Z,31.84
2018-08-09T10:55:10.583Z,33.07
2018-08-09T10:57:41.457Z,31.78
2018-08-09T11:00:14.856Z,32.90
2018-08-09T11:02:45.106Z,33.08
2018-08-09T11:05:16.275Z,31.79
2018-08-09T11:07:47.232Z,31.52
2018-08-09T11:10:17.818Z,30.51
2018-08-09T11:12:48.940Z,32.48
2018-08-09T11:15:25.430Z,31.73
2018-08-09T11:18:03.713Z,32.36
2018-08-09T11:20:52.231Z,30.88
2018-08-09T11:29:11.751Z,32.64
2018-08-09T11:31:52.124Z,30.53
2018-08-09T11:34:28.778Z,30.79
2018-08-09T11:37:08.173Z,32.71
2018-08-09T11:39:44.749Z,30.61
2018-08-09T12:08:16.972Z,28.78
2018-08-09T12:13:44.090Z,28.34
2018-08-09T12:16:25.516Z,29.05
2018-08-09T12:22:15.976Z,26.42
2018-08-09T12:24:50.864Z,27.34
2018-08-09T12:33:43.766Z,27.80
2018-08-09T12:39:38.581Z,26.98
2018-08-09T12:42:11.359Z,27.06
2018-08-09T12:45:10.832Z,27.28
2018-08-09T13:08:48.201Z,24.72
2018-08-09T13:14:45.943Z,24.57
2018-08-09T13:20:39.253Z,23.06
2018-08-09T13:23:14.276Z,21.74
2018-08-09T13:25:54.307Z,22.83
2018-08-09T13:31:18.891Z,30.11
2018-08-09T13:33:51.757Z,35.02
2018-08-09T13:36:27.548Z,40.73
2018-08-09T13:39:05.867Z,43.54
2018-08-09T13:41:40.242Z,45.35
2018-08-09T13:44:14.268Z,48.25
2018-08-09T13:46:44.806Z,53.73
2018-08-09T13:49:20.635Z,60.24
2018-08-09T13:51:55.965Z,64.92
2018-08-09T13:54:28.853Z,67.00
2018-08-09T13:57:04.265Z,68.43
2018-08-09T13:59:34.425Z,68.89
2018-08-09T14:02:06.686Z,67.58
2018-08-09T14:04:37.214Z,67.24
2018-08-09T14:07:08.255Z,67.25
2018-08-09T14:09:38.068Z,66.70
2018-08-09T14:12:10.014Z,66.38
2018-08-09T14:14:40.443Z,66.87
2018-08-09T14:17:10.410Z,66.25
2018-08-09T14:19:41.232Z,66.36
2018-08-09T14:22:11.580Z,65.32
2018-08-09T14:24:41.400Z,60.64
2018-08-09T14:27:11.162Z,58.85
2018-08-09T14:29:49.251Z,57.33
2018-08-09T14:32:22.451Z,52.45
2018-08-09T14:34:56.127Z,54.49
2018-08-09T14:37:27.795Z,54.72
2018-08-09T14:39:58.619Z,57.36
2018-08-09T14:42:30.108Z,58.77
2018-08-09T14:45:00.208Z,58.99
2018-08-09T14:47:32.697Z,56.42
2018-08-09T14:50:11.653Z,55.88
2018-08-09T14:52:46.551Z,56.74
2018-08-09T14:57:06.321Z,57.23
2018-08-09T14:59:56.500Z,57.30
2018-08-09T15:05:32.257Z,57.60
2018-08-09T15:08:06.477Z,58.07
2018-08-09T15:10:39.398Z,57.64
2018-08-09T15:13:09.925Z,57.92
2018-08-09T15:15:40.275Z,58.47
2018-08-09T15:18:11.120Z,58.12
2018-08-09T15:20:42.337Z,58.13
2018-08-09T15:23:15.905Z,59.34
2018-08-09T15:25:45.997Z,59.19
2018-08-09T15:28:16.640Z,59.66
2018-08-09T15:30:46.719Z,59.96
2018-08-09T15:33:18.199Z,59.54
2018-08-09T15:35:49.112Z,59.21
2018-08-09T15:38:19.766Z,58.56
2018-08-09T15:40:51.408Z,59.00
2018-08-09T15:43:21.355Z,58.54
2018-08-09T15:45:51.680Z,58.15
2018-08-09T15:48:38.418Z,56.84
2018-08-09T15:54:02.741Z,46.60
2018-08-09T15:56:38.682Z,42.48
2018-08-09T15:59:36.563Z,42.95
2018-08-09T16:02:09.300Z,44.38
2018-08-09T16:04:43.490Z,43.09
2018-08-09T16:07:16.523Z,38.61
2018-08-09T16:15:45.785Z,46.22
2018-08-09T16:18:17.524Z,47.15
2018-08-09T16:20:53.324Z,47.01
2018-08-09T16:23:24.185Z,48.10
2018-08-09T16:25:56.096Z,47.82
2018-08-09T16:28:27.132Z,46.79
2018-08-09T16:30:57.641Z,47.25
2018-08-09T16:33:30.363Z,48.11
2018-08-09T16:36:01.643Z,48.39
2018-08-09T16:38:32.078Z,47.62
2018-08-09T16:41:05.478Z,49.20
2018-08-09T16:46:58.150Z,48.27
2018-08-09T16:49:29.203Z,49.33
2018-08-09T17:13:19.287Z,48.89
2018-08-09T17:15:53.433Z,49.71
2018-08-09T17:18:24.343Z,49.78
2018-08-09T17:20:56.304Z,50.62
2018-08-09T17:23:27.710Z,52.32
2018-08-09T17:26:00.296Z,55.75
2018-08-09T17:28:30.650Z,58.09
2018-08-09T17:31:02.336Z,57.27
2018-08-09T17:33:33.327Z,57.37
2018-08-09T17:36:14.698Z,59.06
2018-08-09T17:38:45.462Z,63.32
2018-08-09T17:41:16.252Z,66.84
2018-08-09T17:43:50.724Z,70.66
2018-08-09T17:46:20.856Z,68.19
2018-08-09T17:48:51.286Z,70.53
2018-08-09T17:51:25.423Z,66.95
2018-08-09T17:54:00.796Z,67.02
2018-08-09T17:56:30.908Z,71.24
2018-08-09T17:59:03.006Z,72.42
2018-08-09T18:01:33.122Z,75.23
2018-08-09T18:04:03.588Z,76.69
2018-08-09T18:06:33.697Z,76.88
2018-08-09T18:09:04.341Z,77.90
2018-08-09T18:11:37.045Z,78.69
2018-08-09T18:14:07.474Z,77.62
2018-08-09T18:16:39.551Z,77.94
2018-08-09T18:19:10.414Z,78.29
2018-08-09T18:21:49.809Z,79.49
2018-08-09T18:24:20.968Z,78.10
2018-08-09T18:26:53.417Z,77.80
2018-08-09T18:29:24.031Z,76.56
2018-08-09T18:31:54.934Z,76.42
2018-08-09T18:34:27.381Z,77.40
2018-08-09T18:37:06.590Z,77.78
2018-08-09T18:42:44.614Z,77.57
2018-08-09T18:45:17.089Z,77.86
2018-08-09T18:47:54.017Z,77.54
2018-08-09T18:50:34.722Z,77.29
2018-08-09T18:58:46.805Z,75.66
2018-08-09T19:01:19.747Z,75.95
2018-08-09T19:03:53.448Z,70.81
2018-08-09T19:06:29.299Z,69.32
2018-08-09T19:09:09.846Z,71.37
2018-08-09T19:11:44.227Z,68.32
2018-08-09T19:14:17.896Z,70.53
2018-08-09T19:16:50.380Z,70.99
2018-08-09T19:19:34.100Z,72.34
2018-08-09T19:22:07.491Z,73.12
2018-08-09T19:24:46.939Z,74.25
2018-08-09T19:27:25.808Z,73.81
2018-08-09T19:30:02.384Z,74.39
2018-08-09T19:35:19.816Z,74.24
2018-08-09T19:40:35.184Z,74.58
2018-08-09T19:43:13.042Z,74.92
2018-08-09T19:45:45.836Z,76.22
2018-08-09T19:48:23.448Z,77.04
2018-08-09T19:53:35.725Z,77.07
2018-08-09T19:56:14.837Z,74.92
2018-08-09T19:58:49.359Z,75.44
2018-08-09T20:01:22.420Z,74.00
2018-08-09T20:04:00.012Z,72.50
2018-08-09T20:06:33.156Z,73.57
2018-08-09T20:09:06.423Z,73.94
2018-08-09T20:11:43.630Z,73.00
2018-08-09T20:14:16.377Z,73.80
2018-08-09T20:16:53.575Z,74.24
2018-08-09T20:19:28.526Z,73.57
2018-08-09T20:24:43.155Z,73.93
2018-08-09T20:27:18.825Z,75.10
2018-08-09T20:29:52.463Z,74.23
2018-08-09T20:32:25.526Z,74.54
2018-08-09T20:35:01.718Z,74.06
2018-08-09T20:37:33.426Z,75.53
2018-08-09T20:40:06.351Z,75.13
2018-08-09T20:42:37.946Z,75.41
2018-08-09T20:45:12.951Z,75.69
2018-08-09T20:47:59.677Z,75.07
2018-08-09T20:50:30.662Z,75.05
2018-08-09T20:53:01.490Z,74.44
2018-08-09T20:55:36.539Z,74.23
2018-08-09T20:58:08.812Z,74.04
2018-08-09T21:00:42.089Z,74.53
2018-08-09T21:03:13.965Z,73.86
2018-08-09T21:08:46.583Z,74.28
2018-08-09T21:11:18.755Z,74.51
2018-08-09T21:13:50.447Z,74.41
2018-08-09T21:16:22.145Z,74.46
2018-08-09T21:20:08.866Z,74.66
2018-08-09T21:22:39.150Z,74.45
2018-08-09T21:25:10.050Z,74.64
2018-08-09T21:28:58.072Z,75.53
2018-08-09T21:31:27.921Z,75.30
2018-08-09T21:33:59.355Z,75.68
2018-08-09T21:36:30.254Z,75.73
2018-08-09T21:39:01.350Z,75.85
2018-08-09T21:41:31.401Z,75.95
2018-08-09T21:44:02.744Z,76.44
2018-08-09T21:46:33.194Z,76.75
2018-08-09T21:49:04.266Z,76.95
2018-08-09T21:51:34.844Z,77.01
2018-08-09T21:54:06.555Z,76.32
2018-08-09T21:56:37.747Z,76.50
2018-08-09T21:59:08.519Z,75.92
2018-08-09T22:13:41.036Z,76.62
2018-08-09T22:16:17.751Z,76.36
2018-08-09T22:18:53.496Z,76.26
2018-08-09T22:23:33.024Z,77.01
2018-08-09T22:26:09.209Z,77.39
2018-08-09T22:28:39.464Z,77.02
2018-08-09T22:31:15.361Z,76.99
2018-08-09T22:33:47.009Z,77.22
2018-08-09T22:36:19.984Z,77.04
2018-08-09T22:38:54.761Z,76.71
2018-08-09T22:41:39.317Z,77.39
2018-08-09T22:44:14.090Z,77.53
2018-08-09T22:53:33.590Z,76.92
2018-08-09T22:56:04.700Z,76.79
2018-08-09T23:02:28.333Z,75.93
2018-08-09T23:05:05.937Z,76.45
2018-08-09T23:07:39.033Z,76.63
2018-08-09T23:10:13.222Z,77.40
2018-08-09T23:12:56.264Z,74.82
2018-08-09T23:15:26.903Z,74.85
2018-08-09T23:17:59.694Z,75.14
2018-08-09T23:20:42.141Z,73.86
2018-08-09T23:23:15.150Z,72.79
2018-08-09T23:25:46.879Z,71.55
2018-08-09T23:31:03.881Z,69.68
2018-08-09T23:33:36.371Z,68.70
2018-08-09T23:36:13.124Z,67.44
2018-08-09T23:39:10.445Z,67.34
2018-08-09T23:41:46.020Z,67.26
2018-08-09T23:44:26.606Z,66.69
2018-08-09T23:47:11.301Z,66.80
2018-08-09T23:49:43.544Z,66.98
2018-08-09T23:52:14.189Z,66.63
2018-08-09T23:54:46.514Z,66.55
2018-08-09T23:57:16.277Z,65.94
2018-08-09T23:59:46.010Z,65.55
